createdAt,value
2023-05-13T00:00:45.222Z,8.77
2023-05-13T00:03:48.337Z,9.02
2023-05-13T00:06:51.588Z,8.55
2023-05-13T00:09:54.423Z,8.85
2023-05-13T00:12:57.107Z,8.97
2023-05-13T00:16:00.068Z,8.45
2023-05-13T00:19:02.979Z,9.10
2023-05-13T00:22:05.737Z,9.07
2023-05-13T00:25:08.907Z,9.48
2023-05-13T00:28:14.226Z,9.00
2023-05-13T00:31:17.146Z,8.13
2023-05-13T00:34:20.088Z,9.05
2023-05-13T00:37:23.005Z,9.68
2023-05-13T00:40:25.940Z,10.10
2023-05-13T00:43:29.526Z,9.60
2023-05-13T00:46:35.956Z,9.80
2023-05-13T00:49:39.033Z,9.77
2023-05-13T00:52:42.965Z,10.27
2023-05-13T00:55:46.542Z,9.48
2023-05-13T00:58:50.102Z,8.90
2023-05-13T01:02:35.031Z,10.23
2023-05-13T01:05:40.983Z,10.18
2023-05-13T01:08:56.798Z,9.05
2023-05-13T01:12:08.814Z,9.23
2023-05-13T01:15:16.398Z,9.07
2023-05-13T01:18:27.483Z,9.77
2023-05-13T01:21:36.412Z,10.00
2023-05-13T01:24:39.343Z,9.70
2023-05-13T01:27:42.254Z,10.50
2023-05-13T01:30:48.017Z,9.70
2023-05-13T01:33:51.522Z,10.05
2023-05-13T01:36:54.997Z,10.38
2023-05-13T01:39:58.735Z,10.23
2023-05-13T01:43:02.029Z,10.65
2023-05-13T01:46:12.289Z,10.23
2023-05-13T01:49:15.218Z,10.20
2023-05-13T01:52:18.041Z,10.05
2023-05-13T01:55:21.236Z,10.13
2023-05-13T01:58:25.092Z,10.13
2023-05-13T02:01:27.972Z,10.07
2023-05-13T02:04:30.836Z,10.13
2023-05-13T02:07:34.568Z,11.32
2023-05-13T02:10:37.377Z,11.00
2023-05-13T02:13:40.246Z,11.40
2023-05-13T02:16:43.500Z,11.50
2023-05-13T02:19:46.322Z,11.38
2023-05-13T02:22:49.096Z,11.73
2023-05-13T02:25:51.969Z,11.93
2023-05-13T02:28:54.818Z,11.02
2023-05-13T02:31:57.740Z,11.30
2023-05-13T02:35:00.782Z,11.20
2023-05-13T02:38:04.532Z,11.98
2023-05-13T02:41:09.429Z,11.00
2023-05-13T02:44:12.222Z,11.68
2023-05-13T02:47:15.041Z,11.17
2023-05-13T02:50:18.108Z,11.52
2023-05-13T02:53:20.992Z,11.10
2023-05-13T02:56:29.208Z,11.10
2023-05-13T02:59:32.032Z,11.30
2023-05-13T03:02:35.513Z,10.50
2023-05-13T03:05:38.400Z,10.70
2023-05-13T03:08:41.146Z,11.55
2023-05-13T03:11:43.926Z,10.77
2023-05-13T03:14:46.808Z,11.30
2023-05-13T03:17:49.543Z,10.40
2023-05-13T03:20:54.176Z,10.65
2023-05-13T03:23:58.442Z,10.80
2023-05-13T03:27:01.469Z,10.93
2023-05-13T03:30:06.172Z,11.13
2023-05-13T03:33:14.383Z,10.37
2023-05-13T03:36:17.229Z,11.35
2023-05-13T03:39:20.161Z,11.32
2023-05-13T03:42:23.791Z,12.30
2023-05-13T03:45:27.533Z,11.95
2023-05-13T03:48:33.781Z,11.83
2023-05-13T03:51:38.178Z,11.60
2023-05-13T03:54:41.967Z,12.43
2023-05-13T03:57:49.020Z,11.73
2023-05-13T04:00:54.152Z,12.27
2023-05-13T04:03:56.933Z,11.90
2023-05-13T04:06:59.773Z,11.45
2023-05-13T04:10:02.672Z,12.95
2023-05-13T04:13:06.407Z,11.35
2023-05-13T04:16:09.112Z,11.50
2023-05-13T04:19:11.917Z,11.17
2023-05-13T04:22:14.672Z,12.52
2023-05-13T04:25:17.700Z,11.48
2023-05-13T04:28:20.980Z,11.82
2023-05-13T04:31:25.472Z,11.95
2023-05-13T04:34:28.322Z,12.13
2023-05-13T04:37:31.371Z,11.23
2023-05-13T04:40:38.366Z,11.32
2023-05-13T04:43:45.181Z,11.00
2023-05-13T04:46:48.510Z,10.88
2023-05-13T04:49:51.360Z,10.33
2023-05-13T04:52:56.530Z,10.85
2023-05-13T04:56:01.146Z,11.48
2023-05-13T04:59:05.611Z,11.45
2023-05-13T05:02:08.424Z,10.07
2023-05-13T05:05:11.425Z,10.40
2023-05-13T05:08:14.300Z,9.98
2023-05-13T05:11:17.079Z,10.05
2023-05-13T05:14:20.400Z,9.75
2023-05-13T05:17:25.464Z,10.23
2023-05-13T05:20:28.476Z,9.33
2023-05-13T05:23:34.308Z,10.23
2023-05-13T05:26:37.238Z,9.82
2023-05-13T05:29:42.130Z,9.30
2023-05-13T05:32:45.149Z,10.20
2023-05-13T05:35:49.077Z,10.37
2023-05-13T05:38:53.834Z,10.55
2023-05-13T05:41:58.800Z,10.57
2023-05-13T05:45:01.700Z,11.30
2023-05-13T05:48:05.916Z,10.70
2023-05-13T05:51:08.989Z,9.17
2023-05-13T05:54:12.529Z,10.55
2023-05-13T05:57:15.691Z,10.10
2023-05-13T06:00:19.180Z,10.20
2023-05-13T06:03:22.120Z,10.52
2023-05-13T06:06:25.471Z,10.20
2023-05-13T06:09:28.230Z,10.90
2023-05-13T06:12:31.282Z,11.05
2023-05-13T06:15:34.125Z,10.32
2023-05-13T06:18:36.983Z,10.90
2023-05-13T06:21:39.785Z,10.57
2023-05-13T06:24:44.850Z,11.65
2023-05-13T06:27:49.346Z,12.85
2023-05-13T06:30:56.822Z,12.32
2023-05-13T06:33:59.751Z,11.63
2023-05-13T06:37:02.477Z,12.47
2023-05-13T06:40:06.218Z,14.65
2023-05-13T06:43:16.566Z,12.57
2023-05-13T06:46:23.738Z,12.90
2023-05-13T06:49:26.583Z,13.27
2023-05-13T06:52:31.529Z,13.13
2023-05-13T06:55:41.673Z,14.48
2023-05-13T06:58:44.712Z,14.57
2023-05-13T07:01:47.479Z,13.23
2023-05-13T07:04:50.196Z,14.70
2023-05-13T07:07:53.910Z,14.30
2023-05-13T07:10:56.691Z,14.02
2023-05-13T07:13:59.411Z,13.63
2023-05-13T07:17:02.390Z,13.40
2023-05-13T07:20:06.569Z,13.77
2023-05-13T07:23:09.345Z,13.93
2023-05-13T07:26:12.398Z,13.48
2023-05-13T07:29:15.161Z,13.73
2023-05-13T07:32:18.157Z,14.10
2023-05-13T07:35:21.247Z,14.45
2023-05-13T07:38:24.198Z,15.43
2023-05-13T07:41:27.830Z,17.38
2023-05-13T07:44:30.879Z,17.98
2023-05-13T07:47:34.065Z,17.92
2023-05-13T07:50:36.841Z,17.10
2023-05-13T07:53:39.886Z,17.07
2023-05-13T07:56:44.471Z,15.60
2023-05-13T07:59:47.157Z,15.93
2023-05-13T08:02:50.017Z,16.20
2023-05-13T08:05:52.837Z,16.02
2023-05-13T08:08:55.644Z,14.93
2023-05-13T08:11:58.413Z,15.02
2023-05-13T08:15:04.011Z,16.40
2023-05-13T08:18:06.837Z,16.55
2023-05-13T08:21:09.597Z,16.05
2023-05-13T08:24:12.586Z,15.93
2023-05-13T08:27:15.290Z,17.25
2023-05-13T08:30:18.350Z,17.85
2023-05-13T08:33:21.330Z,16.90
2023-05-13T08:36:26.051Z,16.83
2023-05-13T08:39:29.156Z,16.00
2023-05-13T08:42:33.720Z,16.48
2023-05-13T08:45:37.806Z,17.20
2023-05-13T08:48:42.325Z,16.25
2023-05-13T08:51:45.481Z,16.38
2023-05-13T08:54:48.987Z,16.60
2023-05-13T08:57:52.217Z,16.50
2023-05-13T09:00:55.410Z,17.88
2023-05-13T09:04:01.576Z,17.95
2023-05-13T09:07:08.012Z,17.27
2023-05-13T09:10:11.366Z,16.93
2023-05-13T09:13:14.595Z,19.00
2023-05-13T09:16:17.378Z,19.65
2023-05-13T09:19:20.317Z,18.70
2023-05-13T09:22:23.084Z,19.05
2023-05-13T09:25:27.226Z,18.87
2023-05-13T09:28:30.048Z,17.17
2023-05-13T09:31:33.887Z,18.10
2023-05-13T09:34:36.724Z,18.08
2023-05-13T09:37:39.604Z,19.58
2023-05-13T09:40:50.056Z,20.57
2023-05-13T09:43:52.922Z,21.30
2023-05-13T09:46:55.782Z,22.75
2023-05-13T09:50:02.855Z,22.98
2023-05-13T09:53:14.864Z,23.23
2023-05-13T09:56:22.352Z,21.37
2023-05-13T09:59:25.159Z,20.65
2023-05-13T10:02:29.188Z,22.65
2023-05-13T10:05:34.983Z,22.63
2023-05-13T10:08:39.176Z,21.58
2023-05-13T10:11:46.486Z,21.90
2023-05-13T10:14:52.214Z,20.15
2023-05-13T10:17:55.278Z,22.38
2023-05-13T10:20:58.718Z,22.17
2023-05-13T10:24:02.088Z,23.35
2023-05-13T10:27:06.738Z,21.20
2023-05-13T10:30:10.772Z,21.63
2023-05-13T10:33:14.201Z,23.00
2023-05-13T10:36:27.238Z,24.23
2023-05-13T10:39:38.660Z,24.02
2023-05-13T10:42:47.997Z,24.27
2023-05-13T10:45:56.735Z,22.05
2023-05-13T10:49:00.510Z,22.75
2023-05-13T10:52:14.128Z,22.48
2023-05-13T10:55:20.529Z,23.67
2023-05-13T10:58:30.261Z,22.33
2023-05-13T11:01:44.245Z,22.80
2023-05-13T11:05:00.457Z,21.42
2023-05-13T11:08:03.517Z,18.45
2023-05-13T11:11:21.499Z,20.85
2023-05-13T11:14:26.265Z,20.43
2023-05-13T11:17:31.319Z,19.02
2023-05-13T11:20:51.228Z,19.65
2023-05-13T11:24:06.585Z,18.52
2023-05-13T11:27:21.635Z,16.27
2023-05-13T11:30:27.145Z,14.57
2023-05-13T11:34:11.539Z,14.02
2023-05-13T11:37:14.373Z,14.43
2023-05-13T11:40:34.194Z,13.80
2023-05-13T11:43:39.534Z,12.85
2023-05-13T11:46:59.399Z,12.63
2023-05-13T11:50:02.149Z,11.45
2023-05-13T11:53:05.219Z,11.07
2023-05-13T11:56:11.360Z,10.55
2023-05-13T11:59:15.317Z,10.60
2023-05-13T12:02:22.019Z,11.40
2023-05-13T12:05:25.540Z,10.65
2023-05-13T12:08:28.637Z,10.88
2023-05-13T12:11:31.781Z,11.60
2023-05-13T12:14:34.869Z,10.63
2023-05-13T12:17:38.052Z,10.53
2023-05-13T12:21:17.963Z,10.77
2023-05-13T12:24:21.810Z,10.93
2023-05-13T12:27:24.635Z,10.77
2023-05-13T12:30:34.341Z,10.52
2023-05-13T12:33:47.042Z,9.80
2023-05-13T12:36:49.957Z,10.50
2023-05-13T12:40:10.284Z,10.82
2023-05-13T12:43:13.875Z,9.70
2023-05-13T12:46:16.694Z,9.40
2023-05-13T12:49:19.496Z,8.80
2023-05-13T12:52:22.570Z,9.50
2023-05-13T12:55:27.376Z,9.48
2023-05-13T12:58:30.144Z,8.70
2023-05-13T13:01:33.295Z,8.82
2023-05-13T13:04:36.095Z,9.03
2023-05-13T13:07:38.929Z,9.50
2023-05-13T13:10:41.794Z,9.05
2023-05-13T13:13:45.254Z,8.73
2023-05-13T13:16:48.130Z,8.75
2023-05-13T13:19:51.003Z,8.20
2023-05-13T13:22:54.886Z,7.70
2023-05-13T13:25:59.421Z,6.85
2023-05-13T13:29:02.245Z,6.90
2023-05-13T13:32:05.370Z,6.30
2023-05-13T13:35:08.472Z,7.10
2023-05-13T13:38:11.544Z,6.53
2023-05-13T13:41:14.362Z,7.38
2023-05-13T13:44:17.137Z,6.25
2023-05-13T13:47:19.970Z,6.78
2023-05-13T13:54:18.979Z,5.85
2023-05-13T13:57:24.415Z,6.20
2023-05-13T14:00:27.164Z,6.30
2023-05-13T14:03:30.190Z,5.75
2023-05-13T14:06:32.986Z,6.77
2023-05-13T14:09:35.709Z,6.20
2023-05-13T14:12:38.599Z,6.80
2023-05-13T14:15:41.334Z,6.13
2023-05-13T14:18:44.539Z,7.53
2023-05-13T14:21:47.358Z,6.90
2023-05-13T14:24:52.204Z,7.38
2023-05-13T14:27:54.995Z,6.88
2023-05-13T14:30:57.790Z,6.82
2023-05-13T14:34:00.582Z,8.20
2023-05-13T14:37:03.485Z,7.77
2023-05-13T14:40:07.316Z,9.15
2023-05-13T14:43:10.228Z,8.88
2023-05-13T14:46:13.413Z,8.25
2023-05-13T14:49:16.306Z,8.73
2023-05-13T14:52:19.069Z,8.50
2023-05-13T14:55:21.824Z,8.30
2023-05-13T14:58:24.952Z,7.50
2023-05-13T15:01:27.850Z,7.82
2023-05-13T15:04:30.968Z,9.20
2023-05-13T15:07:33.812Z,9.70
2023-05-13T15:10:36.534Z,7.72
2023-05-13T15:13:39.632Z,7.70
2023-05-13T15:16:42.394Z,7.50
2023-05-13T15:19:45.244Z,7.22
2023-05-13T15:22:48.005Z,7.73
2023-05-13T15:25:51.620Z,7.88
2023-05-13T15:28:54.424Z,7.78
2023-05-13T15:31:57.166Z,7.30
2023-05-13T15:34:59.874Z,7.32
2023-05-13T15:38:03.666Z,7.70
2023-05-13T15:41:06.480Z,7.00
2023-05-13T15:44:09.277Z,6.60
2023-05-13T15:47:12.273Z,7.85
2023-05-13T15:50:15.150Z,7.38
2023-05-13T15:53:17.932Z,7.20
2023-05-13T15:56:25.852Z,7.60
2023-05-13T15:59:28.586Z,6.97
2023-05-13T16:02:37.657Z,7.65
2023-05-13T16:05:40.462Z,7.60
2023-05-13T16:08:43.201Z,7.60
2023-05-13T16:11:46.007Z,8.10
2023-05-13T16:14:48.777Z,7.85
2023-05-13T16:17:51.555Z,7.32
2023-05-13T16:21:18.128Z,7.70
2023-05-13T16:24:37.030Z,7.23
2023-05-13T16:27:40.686Z,7.20
2023-05-13T16:31:13.290Z,7.65
2023-05-13T16:34:16.175Z,7.28
2023-05-13T16:37:19.080Z,7.20
2023-05-13T16:40:22.240Z,6.90
2023-05-13T16:43:25.064Z,7.10
2023-05-13T16:46:29.010Z,7.28
2023-05-13T16:49:31.794Z,7.60
2023-05-13T16:52:34.518Z,7.00
2023-05-13T16:55:37.277Z,7.37
2023-05-13T16:58:40.101Z,7.50
2023-05-13T17:01:42.891Z,7.82
2023-05-13T17:04:45.853Z,7.70
2023-05-13T17:07:48.592Z,8.00
2023-05-13T17:11:01.192Z,8.17
2023-05-13T17:14:06.264Z,8.75
2023-05-13T17:17:09.384Z,7.97
2023-05-13T17:20:12.468Z,8.60
2023-05-13T17:23:17.364Z,7.75
2023-05-13T17:26:22.094Z,9.27
2023-05-13T17:29:26.009Z,9.75
2023-05-13T17:32:31.548Z,9.82
2023-05-13T17:35:54.504Z,11.05
2023-05-13T17:38:57.277Z,13.48
2023-05-13T17:42:00.041Z,12.27
2023-05-13T17:45:03.836Z,12.23
2023-05-13T17:48:06.959Z,11.32
2023-05-13T17:51:11.538Z,12.60
2023-05-13T17:54:14.342Z,13.50
2023-05-13T17:57:17.312Z,14.00
2023-05-13T18:00:20.406Z,15.25
2023-05-13T18:03:23.626Z,15.93
2023-05-13T18:06:26.595Z,12.77
2023-05-13T18:09:29.538Z,14.02
2023-05-13T18:12:32.372Z,14.73
2023-05-13T18:15:35.256Z,16.70
2023-05-13T18:18:38.065Z,16.80
2023-05-13T18:21:40.949Z,16.92
2023-05-13T18:24:46.547Z,16.67
2023-05-13T18:27:50.618Z,16.53
2023-05-13T18:30:53.259Z,18.23
2023-05-13T18:33:55.985Z,17.77
2023-05-13T18:36:58.901Z,16.25
2023-05-13T18:40:02.260Z,16.75
2023-05-13T18:43:05.073Z,15.47
2023-05-13T18:46:07.905Z,15.00
2023-05-13T18:49:11.536Z,16.48
2023-05-13T18:52:14.265Z,16.30
2023-05-13T18:55:17.068Z,16.45
2023-05-13T18:58:19.803Z,18.33
2023-05-13T19:01:22.781Z,18.77
2023-05-13T19:04:26.126Z,16.63
2023-05-13T19:07:29.121Z,15.70
2023-05-13T19:10:39.153Z,17.75
2023-05-13T19:13:47.376Z,15.40
2023-05-13T19:16:51.023Z,13.07
2023-05-13T19:19:53.796Z,10.43
2023-05-13T19:22:56.681Z,9.40
2023-05-13T19:25:59.593Z,10.35
2023-05-13T19:29:02.881Z,11.23
2023-05-13T19:32:06.398Z,12.60
2023-05-13T19:35:09.733Z,14.65
2023-05-13T19:38:12.614Z,14.38
2023-05-13T19:41:15.417Z,15.98
2023-05-13T19:44:18.288Z,14.17
2023-05-13T19:47:21.085Z,15.50
2023-05-13T19:50:24.153Z,15.60
2023-05-13T19:53:27.341Z,15.57
2023-05-13T19:56:30.701Z,16.05
2023-05-13T19:59:33.430Z,15.80
2023-05-13T20:02:36.298Z,16.20
2023-05-13T20:05:41.311Z,16.08
2023-05-13T20:08:44.006Z,15.20
2023-05-13T20:11:46.821Z,15.23
2023-05-13T20:14:58.903Z,15.33
2023-05-13T20:18:01.638Z,14.25
2023-05-13T20:21:04.643Z,14.00
2023-05-13T20:24:07.516Z,15.10
2023-05-13T20:27:10.428Z,14.60
2023-05-13T20:30:13.813Z,14.43
2023-05-13T20:33:16.569Z,15.48
2023-05-13T20:36:19.292Z,15.80
2023-05-13T20:39:22.238Z,15.13
2023-05-13T20:42:25.569Z,14.68
2023-05-13T20:45:28.735Z,16.07
2023-05-13T20:48:33.126Z,16.08
2023-05-13T20:51:35.840Z,15.23
2023-05-13T20:54:38.992Z,14.18
2023-05-13T20:57:42.070Z,15.07
2023-05-13T21:00:44.902Z,14.50
2023-05-13T21:03:50.080Z,14.25
2023-05-13T21:06:53.385Z,16.02
2023-05-13T21:09:56.138Z,14.57
2023-05-13T21:12:59.114Z,14.10
2023-05-13T21:16:05.561Z,14.00
2023-05-13T21:19:08.595Z,13.32
2023-05-13T21:22:11.355Z,13.20
2023-05-13T21:25:14.090Z,14.13
2023-05-13T21:28:18.717Z,13.02
2023-05-13T21:31:21.862Z,12.53
2023-05-13T21:34:24.652Z,12.55
2023-05-13T21:37:27.562Z,14.07
2023-05-13T21:40:30.301Z,13.52
2023-05-13T21:43:33.043Z,12.93
2023-05-13T21:46:36.342Z,12.73
2023-05-13T21:49:39.322Z,13.07
2023-05-13T21:52:42.206Z,13.95
2023-05-13T21:55:44.972Z,12.65
2023-05-13T21:58:50.042Z,12.57
2023-05-13T22:01:52.808Z,11.90
2023-05-13T22:04:55.552Z,11.82
2023-05-13T22:08:00.195Z,10.27
2023-05-13T22:11:03.162Z,9.57
2023-05-13T22:14:05.983Z,9.98
2023-05-13T22:17:10.313Z,10.07
2023-05-13T22:20:13.864Z,10.73
2023-05-13T22:23:16.552Z,11.43
2023-05-13T22:26:19.367Z,12.10
2023-05-13T22:29:22.214Z,11.40
2023-05-13T22:32:25.293Z,11.23
2023-05-13T22:35:32.248Z,11.18
2023-05-13T22:38:34.975Z,11.43
2023-05-13T22:41:37.791Z,11.15
2023-05-13T22:44:40.499Z,10.65
2023-05-13T22:47:48.288Z,10.33
2023-05-13T22:51:00.047Z,11.07
2023-05-13T22:54:02.928Z,10.52
2023-05-13T22:57:06.053Z,10.10
2023-05-13T23:00:09.387Z,9.30
2023-05-13T23:03:12.312Z,9.70
2023-05-13T23:06:15.153Z,9.73
2023-05-13T23:09:18.014Z,10.50
2023-05-13T23:12:20.784Z,9.63
2023-05-13T23:15:23.564Z,9.95
2023-05-13T23:18:26.371Z,10.23
2023-05-13T23:21:29.344Z,10.15
2023-05-13T23:24:32.262Z,10.95
2023-05-13T23:27:35.600Z,10.38
2023-05-13T23:30:38.375Z,11.25
2023-05-13T23:33:41.200Z,10.10
2023-05-13T23:36:43.992Z,10.80
2023-05-13T23:39:46.705Z,11.52
2023-05-13T23:42:49.455Z,10.85
2023-05-13T23:45:52.158Z,10.10
2023-05-13T23:48:55.173Z,10.13
2023-05-13T23:51:57.880Z,10.43
2023-05-13T23:55:03.689Z,10.25
2023-05-13T23:58:06.360Z,9.52
